Skip Navigation Links Skip Navigation Links

Current Weather

Pearson Intl. Apt., Toronto, Ont.

For information only: do not use for flight planning or navigation.
Latest weather
Observation time Friday, January 21, 2022 2:00 PM EST
Local time Friday, January 21, 2022 2:31 PM EST
Flight conditions Visual Meteorological Conditions
Winds
Wind direction variable
Wind speed 2 mph
Visibility 15 mi.
Sky condition
Ceiling unlimited
Cloud layer few clouds 2,000 ft.
Cloud layer few clouds 22,000 ft.
Temperature 12°F
Dewpoint -2°F
Altimeter 30.61 in.Hg
Derived measurements
Relative humidity 52%
Wind chill 12°F
Density altitude -3461 ft.
Sea-level pressure 30.66 in.Hg
METAR CYYZ 211900Z VRB02KT 15SM FEW020 FEW220 M11/M19 A3061 RMK CF1CI1 CF TR CI TR SLP384

Settings

Location code

InnerDrive.Weather 4.0.6770.0 Release CLR 4.0.30319.42000
Copyright ©2018 Inner Drive Technology. All rights reserved. Portions Copyright ©1986-2018 David Braverman.

Find weather

Site navigation


Skip Navigation Links

Place info

Page info

PayPal - The safer, easier way to pay online!

Return home.

Copyright ©2022 Inner Drive Technology. Purveyors of fine, hand-crafted computer software. Page printed 2022-01-21T19:31:29 UTC.